sensor_id;sensor_type;location;lat;lon;timestamp;P1;durP1;ratioP1;P2;durP2;ratioP2
13425;SDS011;6785;57.918;12.530;2022-11-20T00:00:47;2.87;;;2.30;;
13425;SDS011;6785;57.918;12.530;2022-11-20T00:03:14;2.73;;;2.37;;
13425;SDS011;6785;57.918;12.530;2022-11-20T00:05:42;3.40;;;2.20;;
13425;SDS011;6785;57.918;12.530;2022-11-20T00:08:09;2.30;;;2.10;;
13425;SDS011;6785;57.918;12.530;2022-11-20T00:10:36;3.20;;;2.30;;
13425;SDS011;6785;57.918;12.530;2022-11-20T00:13:03;2.93;;;2.43;;
13425;SDS011;6785;57.918;12.530;2022-11-20T00:15:30;3.30;;;2.40;;
13425;SDS011;6785;57.918;12.530;2022-11-20T00:17:58;2.83;;;2.53;;
13425;SDS011;6785;57.918;12.530;2022-11-20T00:20:25;3.00;;;2.40;;
13425;SDS011;6785;57.918;12.530;2022-11-20T00:22:51;3.20;;;2.40;;
13425;SDS011;6785;57.918;12.530;2022-11-20T00:25:18;3.87;;;2.50;;
13425;SDS011;6785;57.918;12.530;2022-11-20T00:27:45;2.60;;;2.40;;
13425;SDS011;6785;57.918;12.530;2022-11-20T00:30:12;3.43;;;2.10;;
13425;SDS011;6785;57.918;12.530;2022-11-20T00:32:39;2.40;;;2.20;;
13425;SDS011;6785;57.918;12.530;2022-11-20T00:35:07;2.63;;;2.30;;
13425;SDS011;6785;57.918;12.530;2022-11-20T00:37:34;3.00;;;2.33;;
13425;SDS011;6785;57.918;12.530;2022-11-20T00:40:01;3.47;;;2.40;;
13425;SDS011;6785;57.918;12.530;2022-11-20T00:42:28;4.37;;;2.97;;
13425;SDS011;6785;57.918;12.530;2022-11-20T00:44:57;2.97;;;2.40;;
13425;SDS011;6785;57.918;12.530;2022-11-20T00:47:24;2.90;;;2.53;;
13425;SDS011;6785;57.918;12.530;2022-11-20T00:49:51;2.47;;;2.27;;
13425;SDS011;6785;57.918;12.530;2022-11-20T00:52:19;3.63;;;2.13;;
13425;SDS011;6785;57.918;12.530;2022-11-20T00:54:46;6.73;;;2.90;;
13425;SDS011;6785;57.918;12.530;2022-11-20T00:57:12;2.87;;;2.37;;
13425;SDS011;6785;57.918;12.530;2022-11-20T00:59:39;2.57;;;2.37;;
13425;SDS011;6785;57.918;12.530;2022-11-20T01:02:06;4.13;;;2.60;;
13425;SDS011;6785;57.918;12.530;2022-11-20T01:04:33;3.33;;;2.53;;
13425;SDS011;6785;57.918;12.530;2022-11-20T01:07:00;5.93;;;3.00;;
13425;SDS011;6785;57.918;12.530;2022-11-20T01:09:28;7.23;;;2.50;;
13425;SDS011;6785;57.918;12.530;2022-11-20T01:11:54;4.27;;;2.40;;
13425;SDS011;6785;57.918;12.530;2022-11-20T01:14:22;3.50;;;2.40;;
13425;SDS011;6785;57.918;12.530;2022-11-20T01:16:49;2.40;;;2.20;;
13425;SDS011;6785;57.918;12.530;2022-11-20T01:19:18;2.63;;;2.23;;
13425;SDS011;6785;57.918;12.530;2022-11-20T01:21:48;3.03;;;2.53;;
13425;SDS011;6785;57.918;12.530;2022-11-20T01:24:17;2.60;;;2.40;;
13425;SDS011;6785;57.918;12.530;2022-11-20T01:26:46;4.53;;;2.53;;
13425;SDS011;6785;57.918;12.530;2022-11-20T01:29:16;3.07;;;2.40;;
13425;SDS011;6785;57.918;12.530;2022-11-20T01:31:44;2.90;;;2.50;;
13425;SDS011;6785;57.918;12.530;2022-11-20T01:34:12;5.60;;;2.60;;
13425;SDS011;6785;57.918;12.530;2022-11-20T01:36:40;3.20;;;2.50;;
13425;SDS011;6785;57.918;12.530;2022-11-20T01:39:10;3.47;;;2.70;;
13425;SDS011;6785;57.918;12.530;2022-11-20T01:41:38;4.63;;;2.50;;
13425;SDS011;6785;57.918;12.530;2022-11-20T01:47:13;3.43;;;2.50;;
13425;SDS011;6785;57.918;12.530;2022-11-20T01:49:44;2.30;;;2.10;;
13425;SDS011;6785;57.918;12.530;2022-11-20T01:52:15;2.90;;;2.47;;
13425;SDS011;6785;57.918;12.530;2022-11-20T01:54:44;4.47;;;2.40;;
13425;SDS011;6785;57.918;12.530;2022-11-20T01:57:14;3.60;;;2.60;;
13425;SDS011;6785;57.918;12.530;2022-11-20T01:59:46;2.50;;;2.30;;
13425;SDS011;6785;57.918;12.530;2022-11-20T02:02:18;4.03;;;2.63;;
13425;SDS011;6785;57.918;12.530;2022-11-20T02:04:45;4.47;;;2.97;;
13425;SDS011;6785;57.918;12.530;2022-11-20T02:07:13;3.83;;;2.60;;
13425;SDS011;6785;57.918;12.530;2022-11-20T02:09:40;3.73;;;2.70;;
13425;SDS011;6785;57.918;12.530;2022-11-20T02:12:07;3.93;;;2.57;;
13425;SDS011;6785;57.918;12.530;2022-11-20T02:14:56;3.10;;;2.77;;
13425;SDS011;6785;57.918;12.530;2022-11-20T02:17:22;4.43;;;3.10;;
13425;SDS011;6785;57.918;12.530;2022-11-20T02:19:49;2.87;;;2.50;;
13425;SDS011;6785;57.918;12.530;2022-11-20T02:22:17;3.50;;;2.60;;
13425;SDS011;6785;57.918;12.530;2022-11-20T02:24:52;2.93;;;2.50;;
13425;SDS011;6785;57.918;12.530;2022-11-20T02:27:19;3.97;;;2.90;;
13425;SDS011;6785;57.918;12.530;2022-11-20T02:29:48;3.97;;;2.97;;
13425;SDS011;6785;57.918;12.530;2022-11-20T02:32:18;3.33;;;3.03;;
13425;SDS011;6785;57.918;12.530;2022-11-20T02:34:45;3.10;;;2.80;;
13425;SDS011;6785;57.918;12.530;2022-11-20T02:37:12;3.67;;;3.30;;
13425;SDS011;6785;57.918;12.530;2022-11-20T02:39:40;3.20;;;2.80;;
13425;SDS011;6785;57.918;12.530;2022-11-20T02:42:10;8.40;;;3.27;;
13425;SDS011;6785;57.918;12.530;2022-11-20T02:44:37;3.33;;;2.70;;
13425;SDS011;6785;57.918;12.530;2022-11-20T02:47:04;4.03;;;3.10;;
13425;SDS011;6785;57.918;12.530;2022-11-20T02:49:31;3.30;;;3.00;;
13425;SDS011;6785;57.918;12.530;2022-11-20T02:51:58;4.03;;;2.83;;
13425;SDS011;6785;57.918;12.530;2022-11-20T02:54:25;3.90;;;2.63;;
13425;SDS011;6785;57.918;12.530;2022-11-20T02:56:52;3.00;;;2.80;;
13425;SDS011;6785;57.918;12.530;2022-11-20T02:59:20;5.83;;;3.53;;
13425;SDS011;6785;57.918;12.530;2022-11-20T03:01:47;42.90;;;5.70;;
13425;SDS011;6785;57.918;12.530;2022-11-20T03:04:14;3.50;;;2.77;;
13425;SDS011;6785;57.918;12.530;2022-11-20T03:06:41;3.63;;;2.83;;
13425;SDS011;6785;57.918;12.530;2022-11-20T03:09:08;4.37;;;3.00;;
13425;SDS011;6785;57.918;12.530;2022-11-20T03:11:34;2.97;;;2.67;;
13425;SDS011;6785;57.918;12.530;2022-11-20T03:14:02;4.63;;;3.13;;
13425;SDS011;6785;57.918;12.530;2022-11-20T03:16:30;5.80;;;3.27;;
13425;SDS011;6785;57.918;12.530;2022-11-20T03:18:58;4.60;;;3.00;;
13425;SDS011;6785;57.918;12.530;2022-11-20T03:21:25;3.97;;;3.00;;
13425;SDS011;6785;57.918;12.530;2022-11-20T03:23:52;3.80;;;3.10;;
13425;SDS011;6785;57.918;12.530;2022-11-20T03:26:20;3.20;;;2.77;;
13425;SDS011;6785;57.918;12.530;2022-11-20T03:28:49;4.07;;;3.27;;
13425;SDS011;6785;57.918;12.530;2022-11-20T03:31:17;3.87;;;3.20;;
13425;SDS011;6785;57.918;12.530;2022-11-20T03:33:46;3.80;;;2.93;;
13425;SDS011;6785;57.918;12.530;2022-11-20T03:36:14;3.87;;;3.20;;
13425;SDS011;6785;57.918;12.530;2022-11-20T03:38:43;4.17;;;2.97;;
13425;SDS011;6785;57.918;12.530;2022-11-20T03:41:10;3.33;;;2.80;;
13425;SDS011;6785;57.918;12.530;2022-11-20T03:43:38;3.20;;;2.77;;
13425;SDS011;6785;57.918;12.530;2022-11-20T03:46:06;3.20;;;2.90;;
13425;SDS011;6785;57.918;12.530;2022-11-20T03:48:33;9.43;;;3.40;;
13425;SDS011;6785;57.918;12.530;2022-11-20T03:51:08;3.20;;;2.90;;
13425;SDS011;6785;57.918;12.530;2022-11-20T03:53:35;4.10;;;2.83;;
13425;SDS011;6785;57.918;12.530;2022-11-20T03:56:03;3.50;;;2.90;;
13425;SDS011;6785;57.918;12.530;2022-11-20T03:58:30;4.60;;;3.20;;
13425;SDS011;6785;57.918;12.530;2022-11-20T04:01:03;3.57;;;3.00;;
13425;SDS011;6785;57.918;12.530;2022-11-20T04:03:30;3.67;;;2.83;;
13425;SDS011;6785;57.918;12.530;2022-11-20T04:06:00;3.63;;;3.00;;
13425;SDS011;6785;57.918;12.530;2022-11-20T04:08:29;3.47;;;3.00;;
13425;SDS011;6785;57.918;12.530;2022-11-20T04:10:56;3.67;;;3.00;;
13425;SDS011;6785;57.918;12.530;2022-11-20T04:13:23;4.20;;;3.03;;
13425;SDS011;6785;57.918;12.530;2022-11-20T04:15:49;5.00;;;3.40;;
13425;SDS011;6785;57.918;12.530;2022-11-20T04:18:16;4.90;;;3.50;;
13425;SDS011;6785;57.918;12.530;2022-11-20T04:20:43;3.50;;;3.10;;
13425;SDS011;6785;57.918;12.530;2022-11-20T04:23:10;4.00;;;2.93;;
13425;SDS011;6785;57.918;12.530;2022-11-20T04:25:38;4.47;;;3.10;;
13425;SDS011;6785;57.918;12.530;2022-11-20T04:28:05;3.33;;;3.03;;
13425;SDS011;6785;57.918;12.530;2022-11-20T04:30:32;4.23;;;2.97;;
13425;SDS011;6785;57.918;12.530;2022-11-20T04:32:58;5.77;;;3.57;;
13425;SDS011;6785;57.918;12.530;2022-11-20T04:35:25;5.93;;;3.43;;
13425;SDS011;6785;57.918;12.530;2022-11-20T04:37:52;3.77;;;3.20;;
13425;SDS011;6785;57.918;12.530;2022-11-20T04:40:19;4.87;;;3.30;;
13425;SDS011;6785;57.918;12.530;2022-11-20T04:42:47;3.33;;;2.90;;
13425;SDS011;6785;57.918;12.530;2022-11-20T04:45:14;4.00;;;3.07;;
13425;SDS011;6785;57.918;12.530;2022-11-20T04:47:43;3.93;;;3.10;;
13425;SDS011;6785;57.918;12.530;2022-11-20T04:50:10;3.83;;;3.17;;
13425;SDS011;6785;57.918;12.530;2022-11-20T04:52:37;4.37;;;3.00;;
13425;SDS011;6785;57.918;12.530;2022-11-20T04:55:04;3.27;;;2.90;;
13425;SDS011;6785;57.918;12.530;2022-11-20T04:57:31;3.70;;;3.07;;
13425;SDS011;6785;57.918;12.530;2022-11-20T04:59:59;4.37;;;2.70;;
13425;SDS011;6785;57.918;12.530;2022-11-20T05:02:26;4.10;;;3.23;;
13425;SDS011;6785;57.918;12.530;2022-11-20T05:04:53;4.93;;;3.30;;
13425;SDS011;6785;57.918;12.530;2022-11-20T05:07:20;3.50;;;2.97;;
13425;SDS011;6785;57.918;12.530;2022-11-20T05:09:46;3.97;;;2.93;;
13425;SDS011;6785;57.918;12.530;2022-11-20T05:12:13;3.47;;;2.67;;
13425;SDS011;6785;57.918;12.530;2022-11-20T05:14:40;4.83;;;3.07;;
13425;SDS011;6785;57.918;12.530;2022-11-20T05:17:10;6.07;;;3.20;;
13425;SDS011;6785;57.918;12.530;2022-11-20T05:19:37;4.40;;;3.30;;
13425;SDS011;6785;57.918;12.530;2022-11-20T05:22:04;3.60;;;3.00;;
13425;SDS011;6785;57.918;12.530;2022-11-20T05:24:31;4.27;;;3.13;;
13425;SDS011;6785;57.918;12.530;2022-11-20T05:26:58;3.73;;;3.20;;
13425;SDS011;6785;57.918;12.530;2022-11-20T05:29:24;4.70;;;3.30;;
13425;SDS011;6785;57.918;12.530;2022-11-20T05:31:51;3.53;;;2.93;;
13425;SDS011;6785;57.918;12.530;2022-11-20T05:34:19;3.67;;;3.17;;
13425;SDS011;6785;57.918;12.530;2022-11-20T05:36:46;4.30;;;3.00;;
13425;SDS011;6785;57.918;12.530;2022-11-20T05:39:13;3.80;;;3.00;;
13425;SDS011;6785;57.918;12.530;2022-11-20T05:41:40;4.57;;;3.20;;
13425;SDS011;6785;57.918;12.530;2022-11-20T05:44:06;4.07;;;3.10;;
13425;SDS011;6785;57.918;12.530;2022-11-20T05:46:36;3.57;;;2.93;;
13425;SDS011;6785;57.918;12.530;2022-11-20T05:49:02;4.00;;;3.20;;
13425;SDS011;6785;57.918;12.530;2022-11-20T05:51:31;4.17;;;3.40;;
13425;SDS011;6785;57.918;12.530;2022-11-20T05:53:58;4.87;;;3.23;;
13425;SDS011;6785;57.918;12.530;2022-11-20T05:56:24;5.17;;;3.07;;
13425;SDS011;6785;57.918;12.530;2022-11-20T05:58:51;4.80;;;3.67;;
13425;SDS011;6785;57.918;12.530;2022-11-20T06:01:19;4.83;;;3.20;;
13425;SDS011;6785;57.918;12.530;2022-11-20T06:03:47;18.20;;;4.03;;
13425;SDS011;6785;57.918;12.530;2022-11-20T06:06:15;4.00;;;3.17;;
13425;SDS011;6785;57.918;12.530;2022-11-20T06:08:44;3.93;;;2.80;;
13425;SDS011;6785;57.918;12.530;2022-11-20T06:11:12;4.33;;;2.80;;
13425;SDS011;6785;57.918;12.530;2022-11-20T06:13:40;8.30;;;3.53;;
13425;SDS011;6785;57.918;12.530;2022-11-20T06:16:07;3.87;;;3.43;;
13425;SDS011;6785;57.918;12.530;2022-11-20T06:18:34;3.97;;;3.40;;
13425;SDS011;6785;57.918;12.530;2022-11-20T06:21:02;3.73;;;3.43;;
13425;SDS011;6785;57.918;12.530;2022-11-20T06:23:30;5.40;;;3.13;;
13425;SDS011;6785;57.918;12.530;2022-11-20T06:26:01;7.27;;;3.10;;
13425;SDS011;6785;57.918;12.530;2022-11-20T06:28:29;4.60;;;3.20;;
13425;SDS011;6785;57.918;12.530;2022-11-20T06:31:00;3.33;;;3.00;;
13425;SDS011;6785;57.918;12.530;2022-11-20T06:33:28;4.53;;;3.40;;
13425;SDS011;6785;57.918;12.530;2022-11-20T06:35:56;4.23;;;3.40;;
13425;SDS011;6785;57.918;12.530;2022-11-20T06:38:23;5.10;;;3.13;;
13425;SDS011;6785;57.918;12.530;2022-11-20T06:40:50;4.10;;;3.27;;
13425;SDS011;6785;57.918;12.530;2022-11-20T06:43:18;5.87;;;3.30;;
13425;SDS011;6785;57.918;12.530;2022-11-20T06:45:45;4.23;;;3.40;;
13425;SDS011;6785;57.918;12.530;2022-11-20T06:48:12;4.47;;;3.30;;
13425;SDS011;6785;57.918;12.530;2022-11-20T06:50:38;3.57;;;3.10;;
13425;SDS011;6785;57.918;12.530;2022-11-20T06:53:05;4.17;;;3.40;;
13425;SDS011;6785;57.918;12.530;2022-11-20T06:55:32;4.53;;;3.57;;
13425;SDS011;6785;57.918;12.530;2022-11-20T06:57:59;4.70;;;3.53;;
13425;SDS011;6785;57.918;12.530;2022-11-20T07:00:27;4.50;;;3.60;;
13425;SDS011;6785;57.918;12.530;2022-11-20T07:02:54;3.60;;;3.10;;
13425;SDS011;6785;57.918;12.530;2022-11-20T07:05:21;4.67;;;3.80;;
13425;SDS011;6785;57.918;12.530;2022-11-20T07:07:48;4.30;;;3.57;;
13425;SDS011;6785;57.918;12.530;2022-11-20T07:10:15;6.60;;;3.10;;
13425;SDS011;6785;57.918;12.530;2022-11-20T07:12:42;3.07;;;2.77;;
13425;SDS011;6785;57.918;12.530;2022-11-20T07:15:17;3.40;;;3.00;;
13425;SDS011;6785;57.918;12.530;2022-11-20T07:17:46;4.27;;;3.40;;
13425;SDS011;6785;57.918;12.530;2022-11-20T07:20:12;4.93;;;2.73;;
13425;SDS011;6785;57.918;12.530;2022-11-20T07:22:40;4.27;;;3.07;;
13425;SDS011;6785;57.918;12.530;2022-11-20T07:25:07;4.30;;;3.40;;
13425;SDS011;6785;57.918;12.530;2022-11-20T07:27:35;5.13;;;3.00;;
13425;SDS011;6785;57.918;12.530;2022-11-20T07:30:02;5.50;;;3.40;;
13425;SDS011;6785;57.918;12.530;2022-11-20T07:32:30;4.13;;;2.87;;
13425;SDS011;6785;57.918;12.530;2022-11-20T07:34:58;3.43;;;2.87;;
13425;SDS011;6785;57.918;12.530;2022-11-20T07:37:26;3.87;;;2.90;;
13425;SDS011;6785;57.918;12.530;2022-11-20T07:39:53;3.77;;;2.87;;
13425;SDS011;6785;57.918;12.530;2022-11-20T07:42:19;4.17;;;2.70;;
13425;SDS011;6785;57.918;12.530;2022-11-20T07:44:46;3.60;;;2.83;;
13425;SDS011;6785;57.918;12.530;2022-11-20T07:47:13;8.40;;;3.57;;
13425;SDS011;6785;57.918;12.530;2022-11-20T07:49:40;3.20;;;2.60;;
13425;SDS011;6785;57.918;12.530;2022-11-20T07:52:08;3.10;;;2.77;;
13425;SDS011;6785;57.918;12.530;2022-11-20T07:54:35;3.83;;;3.17;;
13425;SDS011;6785;57.918;12.530;2022-11-20T07:57:01;4.73;;;2.80;;
13425;SDS011;6785;57.918;12.530;2022-11-20T07:59:28;6.67;;;3.70;;
13425;SDS011;6785;57.918;12.530;2022-11-20T08:01:55;6.57;;;3.90;;
13425;SDS011;6785;57.918;12.530;2022-11-20T08:04:22;8.63;;;4.40;;
13425;SDS011;6785;57.918;12.530;2022-11-20T08:06:49;8.23;;;4.47;;
13425;SDS011;6785;57.918;12.530;2022-11-20T08:09:19;6.47;;;3.60;;
13425;SDS011;6785;57.918;12.530;2022-11-20T08:11:46;5.03;;;2.83;;
13425;SDS011;6785;57.918;12.530;2022-11-20T08:14:30;4.13;;;2.83;;
13425;SDS011;6785;57.918;12.530;2022-11-20T08:16:57;3.10;;;2.70;;
13425;SDS011;6785;57.918;12.530;2022-11-20T08:19:24;4.83;;;3.20;;
13425;SDS011;6785;57.918;12.530;2022-11-20T08:21:51;4.03;;;2.97;;
13425;SDS011;6785;57.918;12.530;2022-11-20T08:24:19;4.03;;;3.07;;
13425;SDS011;6785;57.918;12.530;2022-11-20T08:26:46;5.93;;;2.93;;
13425;SDS011;6785;57.918;12.530;2022-11-20T08:29:13;3.87;;;2.60;;
13425;SDS011;6785;57.918;12.530;2022-11-20T08:31:39;4.20;;;3.30;;
13425;SDS011;6785;57.918;12.530;2022-11-20T08:34:06;2.97;;;2.67;;
13425;SDS011;6785;57.918;12.530;2022-11-20T08:36:35;3.80;;;2.87;;
13425;SDS011;6785;57.918;12.530;2022-11-20T08:39:02;4.40;;;2.60;;
13425;SDS011;6785;57.918;12.530;2022-11-20T08:41:30;5.27;;;2.70;;
13425;SDS011;6785;57.918;12.530;2022-11-20T08:43:58;7.13;;;2.80;;
13425;SDS011;6785;57.918;12.530;2022-11-20T08:46:27;4.33;;;3.03;;
13425;SDS011;6785;57.918;12.530;2022-11-20T08:48:59;3.30;;;2.70;;
13425;SDS011;6785;57.918;12.530;2022-11-20T08:51:26;7.53;;;2.43;;
13425;SDS011;6785;57.918;12.530;2022-11-20T08:53:53;3.57;;;2.47;;
13425;SDS011;6785;57.918;12.530;2022-11-20T08:56:20;3.80;;;2.67;;
13425;SDS011;6785;57.918;12.530;2022-11-20T08:58:49;3.20;;;2.70;;
13425;SDS011;6785;57.918;12.530;2022-11-20T09:01:16;2.90;;;2.60;;
13425;SDS011;6785;57.918;12.530;2022-11-20T09:03:43;4.27;;;2.63;;
13425;SDS011;6785;57.918;12.530;2022-11-20T09:06:10;3.57;;;2.77;;
13425;SDS011;6785;57.918;12.530;2022-11-20T09:08:38;3.63;;;2.93;;
13425;SDS011;6785;57.918;12.530;2022-11-20T09:11:05;3.20;;;2.70;;
13425;SDS011;6785;57.918;12.530;2022-11-20T09:13:33;3.47;;;2.87;;
13425;SDS011;6785;57.918;12.530;2022-11-20T09:16:03;3.47;;;2.80;;
13425;SDS011;6785;57.918;12.530;2022-11-20T09:18:32;4.97;;;3.10;;
13425;SDS011;6785;57.918;12.530;2022-11-20T09:21:01;2.90;;;2.43;;
13425;SDS011;6785;57.918;12.530;2022-11-20T09:23:30;4.03;;;2.97;;
13425;SDS011;6785;57.918;12.530;2022-11-20T09:26:01;5.37;;;2.90;;
13425;SDS011;6785;57.918;12.530;2022-11-20T09:28:33;4.70;;;3.27;;
13425;SDS011;6785;57.918;12.530;2022-11-20T09:31:03;3.60;;;2.83;;
13425;SDS011;6785;57.918;12.530;2022-11-20T09:33:31;4.57;;;3.27;;
13425;SDS011;6785;57.918;12.530;2022-11-20T09:35:58;6.50;;;2.90;;
13425;SDS011;6785;57.918;12.530;2022-11-20T09:38:26;5.03;;;3.47;;
13425;SDS011;6785;57.918;12.530;2022-11-20T09:40:55;4.77;;;3.10;;
13425;SDS011;6785;57.918;12.530;2022-11-20T09:43:26;4.90;;;3.23;;
13425;SDS011;6785;57.918;12.530;2022-11-20T09:46:21;3.73;;;2.83;;
13425;SDS011;6785;57.918;12.530;2022-11-20T09:48:58;4.97;;;2.93;;
13425;SDS011;6785;57.918;12.530;2022-11-20T09:51:43;4.37;;;3.30;;
13425;SDS011;6785;57.918;12.530;2022-11-20T09:54:19;3.50;;;2.77;;
13425;SDS011;6785;57.918;12.530;2022-11-20T09:56:53;3.77;;;2.90;;
13425;SDS011;6785;57.918;12.530;2022-11-20T09:59:26;4.43;;;2.70;;
13425;SDS011;6785;57.918;12.530;2022-11-20T10:02:01;4.80;;;2.80;;
13425;SDS011;6785;57.918;12.530;2022-11-20T10:04:42;3.17;;;2.77;;
13425;SDS011;6785;57.918;12.530;2022-11-20T10:07:13;4.57;;;3.47;;
13425;SDS011;6785;57.918;12.530;2022-11-20T10:09:49;2.90;;;2.60;;
13425;SDS011;6785;57.918;12.530;2022-11-20T10:12:22;2.83;;;2.23;;
13425;SDS011;6785;57.918;12.530;2022-11-20T10:15:01;3.10;;;2.53;;
13425;SDS011;6785;57.918;12.530;2022-11-20T10:17:50;5.07;;;2.90;;
13425;SDS011;6785;57.918;12.530;2022-11-20T10:20:34;3.90;;;2.70;;
13425;SDS011;6785;57.918;12.530;2022-11-20T10:23:14;3.20;;;2.60;;
13425;SDS011;6785;57.918;12.530;2022-11-20T10:25:58;5.13;;;2.87;;
13425;SDS011;6785;57.918;12.530;2022-11-20T10:28:30;2.83;;;2.23;;
13425;SDS011;6785;57.918;12.530;2022-11-20T10:31:09;3.63;;;2.60;;
13425;SDS011;6785;57.918;12.530;2022-11-20T10:33:44;2.23;;;2.03;;
13425;SDS011;6785;57.918;12.530;2022-11-20T10:36:13;6.30;;;2.57;;
13425;SDS011;6785;57.918;12.530;2022-11-20T10:38:44;3.40;;;2.57;;
13425;SDS011;6785;57.918;12.530;2022-11-20T10:41:17;3.57;;;2.80;;
13425;SDS011;6785;57.918;12.530;2022-11-20T10:43:52;2.60;;;2.23;;
13425;SDS011;6785;57.918;12.530;2022-11-20T10:46:26;3.53;;;2.40;;
13425;SDS011;6785;57.918;12.530;2022-11-20T10:49:03;3.07;;;2.47;;
13425;SDS011;6785;57.918;12.530;2022-11-20T10:51:42;2.73;;;2.10;;
13425;SDS011;6785;57.918;12.530;2022-11-20T10:54:22;6.77;;;2.50;;
13425;SDS011;6785;57.918;12.530;2022-11-20T10:57:00;2.30;;;2.10;;
13425;SDS011;6785;57.918;12.530;2022-11-20T10:59:35;2.37;;;2.10;;
13425;SDS011;6785;57.918;12.530;2022-11-20T11:02:17;2.70;;;2.30;;
13425;SDS011;6785;57.918;12.530;2022-11-20T11:04:47;3.07;;;2.30;;
13425;SDS011;6785;57.918;12.530;2022-11-20T11:07:16;2.83;;;1.93;;
13425;SDS011;6785;57.918;12.530;2022-11-20T11:09:50;2.60;;;2.10;;
13425;SDS011;6785;57.918;12.530;2022-11-20T11:12:19;3.87;;;2.20;;
13425;SDS011;6785;57.918;12.530;2022-11-20T11:14:48;2.67;;;1.93;;
13425;SDS011;6785;57.918;12.530;2022-11-20T11:17:24;2.60;;;1.97;;
13425;SDS011;6785;57.918;12.530;2022-11-20T11:20:03;3.47;;;2.17;;
13425;SDS011;6785;57.918;12.530;2022-11-20T11:22:33;4.80;;;2.30;;
13425;SDS011;6785;57.918;12.530;2022-11-20T11:25:01;9.07;;;4.50;;
13425;SDS011;6785;57.918;12.530;2022-11-20T11:27:28;4.03;;;2.10;;
13425;SDS011;6785;57.918;12.530;2022-11-20T11:30:10;3.83;;;2.30;;
13425;SDS011;6785;57.918;12.530;2022-11-20T11:32:40;3.43;;;2.80;;
13425;SDS011;6785;57.918;12.530;2022-11-20T11:35:18;2.10;;;1.90;;
13425;SDS011;6785;57.918;12.530;2022-11-20T11:37:47;3.97;;;2.20;;
13425;SDS011;6785;57.918;12.530;2022-11-20T11:40:16;2.80;;;2.20;;
13425;SDS011;6785;57.918;12.530;2022-11-20T11:42:46;5.23;;;3.43;;
13425;SDS011;6785;57.918;12.530;2022-11-20T11:45:20;12.43;;;6.50;;
13425;SDS011;6785;57.918;12.530;2022-11-20T11:47:47;6.63;;;4.20;;
13425;SDS011;6785;57.918;12.530;2022-11-20T11:50:17;4.60;;;3.53;;
13425;SDS011;6785;57.918;12.530;2022-11-20T11:52:48;2.50;;;2.20;;
13425;SDS011;6785;57.918;12.530;2022-11-20T11:55:25;2.47;;;1.90;;
13425;SDS011;6785;57.918;12.530;2022-11-20T11:57:57;2.80;;;2.07;;
13425;SDS011;6785;57.918;12.530;2022-11-20T12:00:33;4.07;;;2.37;;
13425;SDS011;6785;57.918;12.530;2022-11-20T12:03:03;1.90;;;1.70;;
13425;SDS011;6785;57.918;12.530;2022-11-20T12:05:38;3.10;;;2.10;;
13425;SDS011;6785;57.918;12.530;2022-11-20T12:08:11;4.13;;;2.47;;
13425;SDS011;6785;57.918;12.530;2022-11-20T12:10:45;2.53;;;1.87;;
13425;SDS011;6785;57.918;12.530;2022-11-20T12:13:20;3.27;;;2.00;;
13425;SDS011;6785;57.918;12.530;2022-11-20T12:15:53;3.00;;;2.17;;
13425;SDS011;6785;57.918;12.530;2022-11-20T12:18:21;3.30;;;2.53;;
13425;SDS011;6785;57.918;12.530;2022-11-20T12:20:53;2.97;;;1.80;;
13425;SDS011;6785;57.918;12.530;2022-11-20T12:23:34;1.87;;;1.77;;
13425;SDS011;6785;57.918;12.530;2022-11-20T12:26:11;2.67;;;2.13;;
13425;SDS011;6785;57.918;12.530;2022-11-20T12:28:48;2.13;;;1.93;;
13425;SDS011;6785;57.918;12.530;2022-11-20T12:31:37;1.80;;;1.70;;
13425;SDS011;6785;57.918;12.530;2022-11-20T12:34:31;2.50;;;1.97;;
13425;SDS011;6785;57.918;12.530;2022-11-20T12:37:12;2.30;;;1.77;;
13425;SDS011;6785;57.918;12.530;2022-11-20T12:39:47;1.90;;;1.60;;
13425;SDS011;6785;57.918;12.530;2022-11-20T12:42:20;1.97;;;1.70;;
13425;SDS011;6785;57.918;12.530;2022-11-20T12:48:15;3.03;;;2.13;;
13425;SDS011;6785;57.918;12.530;2022-11-20T12:54:16;2.70;;;2.00;;
13425;SDS011;6785;57.918;12.530;2022-11-20T12:57:02;2.60;;;1.90;;
13425;SDS011;6785;57.918;12.530;2022-11-20T12:59:47;2.93;;;2.07;;
13425;SDS011;6785;57.918;12.530;2022-11-20T13:02:23;4.10;;;2.20;;
13425;SDS011;6785;57.918;12.530;2022-11-20T13:05:02;2.10;;;1.90;;
13425;SDS011;6785;57.918;12.530;2022-11-20T13:07:35;2.97;;;2.03;;
13425;SDS011;6785;57.918;12.530;2022-11-20T13:10:04;2.30;;;2.00;;
13425;SDS011;6785;57.918;12.530;2022-11-20T13:12:40;2.00;;;1.80;;
13425;SDS011;6785;57.918;12.530;2022-11-20T13:15:17;3.23;;;2.10;;
13425;SDS011;6785;57.918;12.530;2022-11-20T13:17:53;2.80;;;2.20;;
13425;SDS011;6785;57.918;12.530;2022-11-20T13:20:23;1.97;;;1.77;;
13425;SDS011;6785;57.918;12.530;2022-11-20T13:22:52;2.27;;;1.87;;
13425;SDS011;6785;57.918;12.530;2022-11-20T13:25:23;3.13;;;2.23;;
13425;SDS011;6785;57.918;12.530;2022-11-20T13:27:52;2.20;;;1.50;;
13425;SDS011;6785;57.918;12.530;2022-11-20T13:30:20;2.40;;;1.90;;
13425;SDS011;6785;57.918;12.530;2022-11-20T13:32:51;1.97;;;1.70;;
13425;SDS011;6785;57.918;12.530;2022-11-20T13:35:29;1.93;;;1.63;;
13425;SDS011;6785;57.918;12.530;2022-11-20T13:38:03;2.40;;;1.80;;
13425;SDS011;6785;57.918;12.530;2022-11-20T13:40:33;2.87;;;1.70;;
13425;SDS011;6785;57.918;12.530;2022-11-20T13:43:04;3.17;;;1.77;;
13425;SDS011;6785;57.918;12.530;2022-11-20T13:45:40;2.13;;;1.77;;
13425;SDS011;6785;57.918;12.530;2022-11-20T13:48:18;2.03;;;1.57;;
13425;SDS011;6785;57.918;12.530;2022-11-20T13:50:55;2.20;;;1.73;;
13425;SDS011;6785;57.918;12.530;2022-11-20T13:56:23;3.30;;;2.17;;
13425;SDS011;6785;57.918;12.530;2022-11-20T13:58:59;4.20;;;2.30;;
13425;SDS011;6785;57.918;12.530;2022-11-20T14:01:31;2.33;;;1.87;;
13425;SDS011;6785;57.918;12.530;2022-11-20T14:04:00;2.17;;;1.83;;
13425;SDS011;6785;57.918;12.530;2022-11-20T14:06:34;2.37;;;1.90;;
13425;SDS011;6785;57.918;12.530;2022-11-20T14:09:09;3.17;;;2.27;;
13425;SDS011;6785;57.918;12.530;2022-11-20T14:11:52;4.33;;;2.17;;
13425;SDS011;6785;57.918;12.530;2022-11-20T14:14:20;3.03;;;2.20;;
13425;SDS011;6785;57.918;12.530;2022-11-20T14:16:48;2.03;;;1.77;;
13425;SDS011;6785;57.918;12.530;2022-11-20T14:19:23;2.77;;;1.87;;
13425;SDS011;6785;57.918;12.530;2022-11-20T14:22:06;2.43;;;1.70;;
13425;SDS011;6785;57.918;12.530;2022-11-20T14:24:39;2.23;;;1.93;;
13425;SDS011;6785;57.918;12.530;2022-11-20T14:27:12;2.63;;;1.90;;
13425;SDS011;6785;57.918;12.530;2022-11-20T14:29:41;2.50;;;2.03;;
13425;SDS011;6785;57.918;12.530;2022-11-20T14:32:09;2.30;;;1.87;;
13425;SDS011;6785;57.918;12.530;2022-11-20T14:34:37;1.93;;;1.70;;
13425;SDS011;6785;57.918;12.530;2022-11-20T14:37:09;1.60;;;1.50;;
13425;SDS011;6785;57.918;12.530;2022-11-20T14:39:40;2.20;;;1.60;;
13425;SDS011;6785;57.918;12.530;2022-11-20T14:42:16;2.10;;;1.80;;
13425;SDS011;6785;57.918;12.530;2022-11-20T14:44:44;2.30;;;2.03;;
13425;SDS011;6785;57.918;12.530;2022-11-20T14:47:11;2.57;;;1.87;;
13425;SDS011;6785;57.918;12.530;2022-11-20T14:49:41;2.60;;;1.77;;
13425;SDS011;6785;57.918;12.530;2022-11-20T14:52:12;1.87;;;1.40;;
13425;SDS011;6785;57.918;12.530;2022-11-20T14:54:44;2.23;;;2.03;;
13425;SDS011;6785;57.918;12.530;2022-11-20T14:57:24;1.93;;;1.57;;
13425;SDS011;6785;57.918;12.530;2022-11-20T15:00:03;3.50;;;1.87;;
13425;SDS011;6785;57.918;12.530;2022-11-20T15:02:33;1.63;;;1.50;;
13425;SDS011;6785;57.918;12.530;2022-11-20T15:05:01;2.97;;;1.73;;
13425;SDS011;6785;57.918;12.530;2022-11-20T15:07:29;3.33;;;2.20;;
13425;SDS011;6785;57.918;12.530;2022-11-20T15:10:00;3.30;;;2.10;;
13425;SDS011;6785;57.918;12.530;2022-11-20T15:12:29;1.93;;;1.70;;
13425;SDS011;6785;57.918;12.530;2022-11-20T15:14:57;4.37;;;2.00;;
13425;SDS011;6785;57.918;12.530;2022-11-20T15:17:24;2.73;;;2.40;;